createdAt,value
2023-03-30T00:01:12.271Z,98558.63
2023-03-30T00:03:39.484Z,98549.66
2023-03-30T00:06:10.670Z,98546.78
2023-03-30T00:08:38.165Z,98539.53
2023-03-30T00:11:11.805Z,98542.13
2023-03-30T00:13:38.487Z,98547.66
2023-03-30T00:16:10.967Z,98551.22
2023-03-30T00:18:39.573Z,98542.38
2023-03-30T00:21:09.483Z,98560.22
2023-03-30T00:23:36.589Z,98550.03
2023-03-30T00:26:03.828Z,98542.22
2023-03-30T00:28:33.826Z,98546.22
2023-03-30T00:31:00.452Z,98545.13
2023-03-30T00:33:41.390Z,98538.72
2023-03-30T00:36:11.944Z,98534.44
2023-03-30T00:38:38.927Z,98531.09
2023-03-30T00:41:07.140Z,98522.25
2023-03-30T00:43:34.484Z,98528.91
2023-03-30T00:46:01.143Z,98520.84
2023-03-30T00:48:32.334Z,98523.75
2023-03-30T00:51:07.778Z,98537.72
2023-03-30T00:53:36.124Z,98539.13
2023-03-30T00:56:04.798Z,98538.88
2023-03-30T00:58:32.070Z,98529.31
2023-03-30T01:01:02.105Z,98531.09
2023-03-30T01:03:32.917Z,98513.53
2023-03-30T01:06:02.848Z,98495.56
2023-03-30T01:08:32.499Z,98500.50
2023-03-30T01:11:03.799Z,98478.53
2023-03-30T01:13:34.193Z,98477.75
2023-03-30T01:16:32.557Z,98476.16
2023-03-30T01:18:58.969Z,98476.22
2023-03-30T01:21:55.473Z,98486.63
2023-03-30T01:24:28.112Z,98485.81
2023-03-30T01:27:16.604Z,98482.38
2023-03-30T01:30:08.055Z,98503.38
2023-03-30T01:33:13.418Z,98499.84
2023-03-30T01:35:59.190Z,98495.97
2023-03-30T01:38:44.495Z,98508.63
2023-03-30T01:41:31.129Z,98504.16
2023-03-30T01:44:09.931Z,98500.09
2023-03-30T01:46:41.091Z,98498.31
2023-03-30T01:49:15.377Z,98488.25
2023-03-30T01:51:58.869Z,98494.09
2023-03-30T01:54:35.097Z,98499.00
2023-03-30T01:57:16.062Z,98498.75
2023-03-30T01:59:52.188Z,98490.38
2023-03-30T02:02:22.550Z,98491.94
2023-03-30T02:04:53.591Z,98493.41
2023-03-30T02:07:26.541Z,98501.19
2023-03-30T02:09:57.007Z,98490.84
2023-03-30T02:12:25.790Z,98489.59
2023-03-30T02:14:54.403Z,98496.88
2023-03-30T02:17:23.767Z,98475.84
2023-03-30T02:19:51.899Z,98463.38
2023-03-30T02:22:20.624Z,98465.69
2023-03-30T02:24:51.571Z,98454.69
2023-03-30T02:27:18.904Z,98465.03
2023-03-30T02:29:45.901Z,98470.44
2023-03-30T02:32:29.713Z,98467.38
2023-03-30T02:35:19.023Z,98452.19
2023-03-30T02:38:14.123Z,98462.16
2023-03-30T02:40:53.001Z,98465.41
2023-03-30T02:43:45.767Z,98456.56
2023-03-30T02:46:21.550Z,98450.78
2023-03-30T02:48:48.141Z,98435.34
2023-03-30T02:51:30.041Z,98420.94
2023-03-30T02:54:05.321Z,98405.50
2023-03-30T02:56:48.695Z,98381.28
2023-03-30T02:59:22.126Z,98374.41
2023-03-30T03:01:58.312Z,98372.38
2023-03-30T03:04:28.421Z,98369.59
2023-03-30T03:06:56.061Z,98366.97
2023-03-30T03:09:26.449Z,98387.28
2023-03-30T03:11:53.275Z,98405.69
2023-03-30T03:14:20.755Z,98402.53
2023-03-30T03:16:48.547Z,98391.69
2023-03-30T03:19:16.041Z,98397.28
2023-03-30T03:21:42.676Z,98405.47
2023-03-30T03:24:09.476Z,98402.69
2023-03-30T03:26:36.634Z,98401.41
2023-03-30T03:29:03.572Z,98399.72
2023-03-30T03:31:30.807Z,98375.63
2023-03-30T03:33:57.374Z,98383.78
2023-03-30T03:36:25.529Z,98380.03
2023-03-30T03:38:52.408Z,98378.00
2023-03-30T03:41:19.473Z,98364.03
2023-03-30T03:43:46.791Z,98373.00
2023-03-30T03:46:15.596Z,98355.13
2023-03-30T03:48:42.543Z,98344.59
2023-03-30T03:51:09.865Z,98344.78
2023-03-30T03:53:36.772Z,98346.84
2023-03-30T03:56:04.509Z,98365.47
2023-03-30T03:58:32.049Z,98357.47
2023-03-30T04:01:00.455Z,98364.09
2023-03-30T04:03:27.602Z,98368.19
2023-03-30T04:05:54.491Z,98355.66
2023-03-30T04:08:21.580Z,98339.09
2023-03-30T04:10:48.172Z,98340.75
2023-03-30T04:13:14.594Z,98325.41
2023-03-30T04:15:41.159Z,98337.88
2023-03-30T04:18:08.644Z,98331.91
2023-03-30T04:20:35.232Z,98330.34
2023-03-30T04:23:01.817Z,98337.44
2023-03-30T04:25:29.260Z,98327.84
2023-03-30T04:27:56.876Z,98315.84
2023-03-30T04:30:24.446Z,98312.78
2023-03-30T04:33:04.896Z,98323.31
2023-03-30T04:35:33.341Z,98327.09
2023-03-30T04:38:02.629Z,98313.34
2023-03-30T04:40:29.697Z,98324.94
2023-03-30T04:43:02.885Z,98304.69
2023-03-30T04:45:32.485Z,98307.56
2023-03-30T04:47:59.523Z,98315.75
2023-03-30T04:50:26.799Z,98302.50
2023-03-30T04:52:53.504Z,98303.34
2023-03-30T04:55:19.947Z,98313.13
2023-03-30T04:57:46.821Z,98312.06
2023-03-30T05:00:13.811Z,98319.63
2023-03-30T05:02:40.400Z,98330.44
2023-03-30T05:05:07.418Z,98309.63
2023-03-30T05:07:33.908Z,98322.94
2023-03-30T05:10:00.858Z,98330.25
2023-03-30T05:12:27.338Z,98338.59
2023-03-30T05:14:54.021Z,98337.75
2023-03-30T05:17:23.782Z,98338.69
2023-03-30T05:19:50.338Z,98339.16
2023-03-30T05:22:17.185Z,98335.53
2023-03-30T05:24:43.752Z,98342.69
2023-03-30T05:27:10.624Z,98337.50
2023-03-30T05:29:37.099Z,98353.00
2023-03-30T05:32:03.694Z,98339.44
2023-03-30T05:34:30.385Z,98353.56
2023-03-30T05:36:56.907Z,98350.03
2023-03-30T05:39:23.398Z,98368.44
2023-03-30T05:41:50.844Z,98390.00
2023-03-30T05:44:19.416Z,98392.84
2023-03-30T05:46:47.230Z,98379.06
2023-03-30T05:49:13.754Z,98385.06
2023-03-30T05:51:41.263Z,98402.63
2023-03-30T05:54:11.728Z,98397.75
2023-03-30T05:56:38.898Z,98389.41
2023-03-30T05:59:05.531Z,98397.66
2023-03-30T06:01:31.943Z,98384.00
2023-03-30T06:03:59.522Z,98387.66
2023-03-30T06:06:27.068Z,98372.31
2023-03-30T06:08:54.201Z,98382.91
2023-03-30T06:11:20.919Z,98384.75
2023-03-30T06:13:49.091Z,98387.28
2023-03-30T06:16:15.734Z,98378.56
2023-03-30T06:18:42.920Z,98393.69
2023-03-30T06:21:09.433Z,98385.69
2023-03-30T06:23:37.602Z,98386.53
2023-03-30T06:26:05.110Z,98391.09
2023-03-30T06:28:32.055Z,98381.44
2023-03-30T06:30:59.129Z,98390.88
2023-03-30T06:33:25.957Z,98386.06
2023-03-30T06:35:53.141Z,98402.59
2023-03-30T06:38:22.001Z,98400.81
2023-03-30T06:40:48.666Z,98400.47
2023-03-30T06:43:18.306Z,98397.31
2023-03-30T06:45:53.320Z,98407.91
2023-03-30T06:48:22.469Z,98413.19
2023-03-30T06:50:49.534Z,98408.06
2023-03-30T06:53:16.727Z,98413.94
2023-03-30T06:55:43.781Z,98422.16
2023-03-30T06:58:11.377Z,98425.31
2023-03-30T07:00:38.091Z,98418.81
2023-03-30T07:03:04.671Z,98409.69
2023-03-30T07:05:31.707Z,98407.81
2023-03-30T07:07:58.306Z,98412.75
2023-03-30T07:10:25.746Z,98413.84
2023-03-30T07:12:52.235Z,98406.81
2023-03-30T07:15:20.431Z,98408.00
2023-03-30T07:17:47.446Z,98412.31
2023-03-30T07:20:16.827Z,98417.69
2023-03-30T07:22:43.457Z,98423.38
2023-03-30T07:25:10.868Z,98412.31
2023-03-30T07:27:38.140Z,98418.72
2023-03-30T07:30:17.899Z,98399.47
2023-03-30T07:32:50.450Z,98410.88
2023-03-30T07:35:17.261Z,98413.22
2023-03-30T07:37:43.852Z,98420.34
2023-03-30T07:40:11.771Z,98416.28
2023-03-30T07:42:39.119Z,98424.00
2023-03-30T07:45:06.254Z,98417.06
2023-03-30T07:47:33.088Z,98412.59
2023-03-30T07:49:59.824Z,98411.44
2023-03-30T07:52:26.373Z,98409.25
2023-03-30T07:54:54.674Z,98408.50
2023-03-30T07:57:22.177Z,98409.13
2023-03-30T07:59:49.548Z,98413.13
2023-03-30T08:02:16.753Z,98412.06
2023-03-30T08:04:47.692Z,98408.88
2023-03-30T08:07:16.507Z,98414.09
2023-03-30T08:09:45.742Z,98398.72
2023-03-30T08:12:12.681Z,98412.78
2023-03-30T08:14:39.545Z,98411.22
2023-03-30T08:17:06.389Z,98417.72
2023-03-30T08:19:32.798Z,98408.38
2023-03-30T08:22:01.753Z,98412.84
2023-03-30T08:24:28.253Z,98408.69
2023-03-30T08:26:54.879Z,98396.25
2023-03-30T08:29:21.858Z,98401.59
2023-03-30T08:31:48.456Z,98386.44
2023-03-30T08:34:15.301Z,98401.47
2023-03-30T08:36:41.915Z,98396.19
2023-03-30T08:39:09.009Z,98414.19
2023-03-30T08:41:57.515Z,98417.75
2023-03-30T08:44:43.534Z,98402.47
2023-03-30T08:47:13.961Z,98405.72
2023-03-30T08:49:45.099Z,98411.88
2023-03-30T08:52:22.806Z,98408.47
2023-03-30T08:54:52.422Z,98401.41
2023-03-30T08:57:36.433Z,98414.53
2023-03-30T09:00:21.043Z,98416.75
2023-03-30T09:02:53.068Z,98408.28
2023-03-30T09:05:48.824Z,98409.00
2023-03-30T09:08:22.827Z,98399.09
2023-03-30T09:10:56.760Z,98389.41
2023-03-30T09:13:30.983Z,98398.47
2023-03-30T09:16:03.326Z,98413.91
2023-03-30T09:18:32.818Z,98417.09
2023-03-30T09:21:01.352Z,98421.84
2023-03-30T09:23:29.836Z,98426.78
2023-03-30T09:26:19.074Z,98416.63
2023-03-30T09:28:56.256Z,98420.69
2023-03-30T09:31:44.937Z,98417.06
2023-03-30T09:34:30.476Z,98426.28
2023-03-30T09:36:58.810Z,98432.94
2023-03-30T09:39:28.301Z,98447.44
2023-03-30T09:42:18.979Z,98471.81
2023-03-30T09:44:59.345Z,98487.81
2023-03-30T09:47:39.505Z,98491.22
2023-03-30T09:50:09.605Z,98495.56
2023-03-30T09:52:40.432Z,98478.97
2023-03-30T09:55:21.227Z,98485.88
2023-03-30T09:57:52.560Z,98484.75
2023-03-30T10:00:32.497Z,98490.69
2023-03-30T10:03:04.268Z,98496.00
2023-03-30T10:05:33.610Z,98493.03
2023-03-30T10:08:03.799Z,98509.94
2023-03-30T10:10:32.757Z,98511.03
2023-03-30T10:13:14.367Z,98501.47
2023-03-30T10:15:47.002Z,98521.72
2023-03-30T10:18:26.248Z,98528.94
2023-03-30T10:21:05.176Z,98544.41
2023-03-30T10:23:43.262Z,98616.75
2023-03-30T10:26:22.506Z,98649.81
2023-03-30T10:29:03.491Z,98664.28
2023-03-30T10:31:35.493Z,98696.50
2023-03-30T10:34:17.752Z,98675.50
2023-03-30T10:36:51.907Z,98686.41
2023-03-30T10:43:30.466Z,98701.19
2023-03-30T10:46:18.381Z,98714.09
2023-03-30T10:49:12.872Z,98682.56
2023-03-30T10:52:01.310Z,98671.78
2023-03-30T10:54:41.798Z,98666.94
2023-03-30T10:57:13.853Z,98672.72
2023-03-30T11:00:10.753Z,98678.41
2023-03-30T11:03:00.195Z,98676.75
2023-03-30T11:05:33.392Z,98676.97
2023-03-30T11:08:04.936Z,98685.34
2023-03-30T11:10:36.634Z,98677.94
2023-03-30T11:13:11.893Z,98667.78
2023-03-30T11:15:55.369Z,98669.38
2023-03-30T11:18:34.154Z,98666.69
2023-03-30T11:21:19.652Z,98669.09
2023-03-30T11:23:53.753Z,98665.72
2023-03-30T11:26:44.019Z,98668.47
2023-03-30T11:29:23.080Z,98672.50
2023-03-30T11:32:08.526Z,98663.25
2023-03-30T11:34:51.246Z,98649.25
2023-03-30T11:37:37.388Z,98641.19
2023-03-30T11:40:16.822Z,98634.50
2023-03-30T11:42:43.748Z,98628.13
2023-03-30T11:45:48.614Z,98641.91
2023-03-30T11:48:28.264Z,98647.09
2023-03-30T11:51:01.040Z,98656.50
2023-03-30T11:53:48.713Z,98652.28
2023-03-30T11:56:38.027Z,98643.06
2023-03-30T11:59:22.370Z,98653.84
2023-03-30T12:02:04.573Z,98644.63
2023-03-30T12:04:57.555Z,98635.41
2023-03-30T12:07:38.981Z,98653.03
2023-03-30T12:10:16.683Z,98653.38
2023-03-30T12:12:45.041Z,98647.00
2023-03-30T12:15:30.550Z,98646.81
2023-03-30T12:17:57.342Z,98648.34
2023-03-30T12:20:40.851Z,98654.38
2023-03-30T12:23:22.624Z,98656.25
2023-03-30T12:26:08.686Z,98645.91
2023-03-30T12:29:17.375Z,98641.16
2023-03-30T12:32:03.573Z,98622.28
2023-03-30T12:34:38.168Z,98618.84
2023-03-30T12:37:04.833Z,98607.00
2023-03-30T12:39:44.716Z,98612.91
2023-03-30T12:42:34.623Z,98610.47
2023-03-30T12:45:04.186Z,98599.00
2023-03-30T12:47:53.008Z,98597.72
2023-03-30T12:50:31.830Z,98610.53
2023-03-30T12:53:23.052Z,98599.94
2023-03-30T12:56:22.098Z,98576.00
2023-03-30T12:59:06.924Z,98567.63
2023-03-30T13:01:54.495Z,98564.22
2023-03-30T13:04:38.084Z,98547.19
2023-03-30T13:07:08.371Z,98544.78
2023-03-30T13:09:53.509Z,98549.00
2023-03-30T13:12:39.834Z,98539.72
2023-03-30T13:15:29.670Z,98538.16
2023-03-30T13:17:56.542Z,98538.72
2023-03-30T13:20:33.860Z,98532.84
2023-03-30T13:23:09.494Z,98528.34
2023-03-30T13:25:51.339Z,98526.47
2023-03-30T13:28:45.570Z,98523.91
2023-03-30T13:31:33.916Z,98509.25
2023-03-30T13:34:07.496Z,98510.06
2023-03-30T13:36:40.820Z,98510.59
2023-03-30T13:39:16.594Z,98521.94
2023-03-30T13:42:05.769Z,98515.34
2023-03-30T13:44:56.779Z,98519.06
2023-03-30T13:47:27.671Z,98508.75
2023-03-30T13:50:03.401Z,98522.00
2023-03-30T13:52:41.191Z,98504.47
2023-03-30T13:55:19.176Z,98507.06
2023-03-30T13:57:46.076Z,98513.72
2023-03-30T14:00:39.996Z,98502.13
2023-03-30T14:03:44.413Z,98516.06
2023-03-30T14:06:17.551Z,98513.25
2023-03-30T14:08:47.754Z,98523.59
2023-03-30T14:11:21.763Z,98533.66
2023-03-30T14:13:52.593Z,98549.13
2023-03-30T14:16:34.119Z,98548.72
2023-03-30T14:19:13.274Z,98583.88
2023-03-30T14:21:44.667Z,98582.38
2023-03-30T14:24:26.136Z,98572.53
2023-03-30T14:26:54.704Z,98589.78
2023-03-30T14:29:31.442Z,98582.00
2023-03-30T14:32:09.080Z,98560.09
2023-03-30T14:34:37.003Z,98551.66
2023-03-30T14:37:06.756Z,98561.78
2023-03-30T14:39:39.918Z,98549.09
2023-03-30T14:42:27.529Z,98548.59
2023-03-30T14:44:57.052Z,98552.16
2023-03-30T14:47:28.575Z,98543.31
2023-03-30T14:50:01.906Z,98540.28
2023-03-30T14:52:34.314Z,98539.53
2023-03-30T14:55:05.905Z,98531.31
2023-03-30T14:57:40.580Z,98536.69
2023-03-30T15:00:33.827Z,98525.84
2023-03-30T15:03:01.634Z,98523.16
2023-03-30T15:05:41.512Z,98511.66
2023-03-30T15:08:19.981Z,98525.84
2023-03-30T15:10:52.835Z,98524.66
2023-03-30T15:13:30.189Z,98517.03
2023-03-30T15:16:00.466Z,98513.94
2023-03-30T15:18:30.457Z,98508.41
2023-03-30T15:20:58.932Z,98500.03
2023-03-30T15:23:38.746Z,98501.00
2023-03-30T15:26:07.309Z,98512.44
2023-03-30T15:28:44.250Z,98520.94
2023-03-30T15:31:13.622Z,98523.63
2023-03-30T15:33:44.314Z,98523.06
2023-03-30T15:36:20.486Z,98549.81
2023-03-30T15:38:50.373Z,98560.47
2023-03-30T15:41:20.932Z,98557.63
2023-03-30T15:44:10.773Z,98559.47
2023-03-30T15:46:38.602Z,98568.72
2023-03-30T15:49:05.958Z,98567.22
2023-03-30T15:51:39.663Z,98561.13
2023-03-30T15:54:17.759Z,98565.00
2023-03-30T15:57:13.922Z,98565.91
2023-03-30T15:59:45.587Z,98563.50
2023-03-30T16:02:20.581Z,98547.88
2023-03-30T16:04:49.339Z,98540.31
2023-03-30T16:07:21.401Z,98536.53
2023-03-30T16:09:48.792Z,98533.78
2023-03-30T16:12:19.290Z,98532.66
2023-03-30T16:14:48.561Z,98529.94
2023-03-30T16:17:15.561Z,98533.09
2023-03-30T16:19:42.883Z,98525.56
2023-03-30T16:22:11.019Z,98524.47
2023-03-30T16:24:38.607Z,98511.16
2023-03-30T16:27:05.927Z,98510.41
2023-03-30T16:29:33.513Z,98516.84
2023-03-30T16:32:00.469Z,98515.13
2023-03-30T16:34:27.131Z,98526.44
2023-03-30T16:36:54.077Z,98529.91
2023-03-30T16:39:23.897Z,98529.56
2023-03-30T16:41:51.801Z,98529.81
2023-03-30T16:44:20.798Z,98528.31
2023-03-30T16:46:47.967Z,98522.63
2023-03-30T16:49:18.648Z,98535.94
2023-03-30T16:51:45.098Z,98530.66
2023-03-30T16:54:19.777Z,98538.66
2023-03-30T16:56:54.084Z,98527.34
2023-03-30T16:59:31.709Z,98526.94
2023-03-30T17:01:59.245Z,98530.56
2023-03-30T17:04:26.485Z,98536.50
2023-03-30T17:06:54.949Z,98529.34
2023-03-30T17:09:21.685Z,98534.25
2023-03-30T17:11:49.081Z,98540.16
2023-03-30T17:14:16.528Z,98543.22
2023-03-30T17:16:43.397Z,98549.31
2023-03-30T17:19:14.620Z,98547.03
2023-03-30T17:21:46.286Z,98548.41
2023-03-30T17:24:15.116Z,98548.78
2023-03-30T17:26:41.798Z,98544.41
2023-03-30T17:29:09.720Z,98546.66
2023-03-30T17:31:36.436Z,98556.59
2023-03-30T17:34:04.219Z,98552.94
2023-03-30T17:36:30.682Z,98555.16
2023-03-30T17:38:57.509Z,98557.56
2023-03-30T17:41:24.015Z,98566.63
2023-03-30T17:43:51.845Z,98553.91
2023-03-30T17:46:19.796Z,98563.16
2023-03-30T17:48:46.966Z,98561.13
2023-03-30T17:51:13.639Z,98559.28
2023-03-30T17:53:40.492Z,98557.28
2023-03-30T17:56:07.274Z,98568.03
2023-03-30T17:58:36.258Z,98565.22
2023-03-30T18:01:09.812Z,98560.47
2023-03-30T18:03:39.158Z,98567.38
2023-03-30T18:06:06.661Z,98575.13
2023-03-30T18:08:33.437Z,98573.50
2023-03-30T18:11:00.865Z,98568.81
2023-03-30T18:13:29.840Z,98576.88
2023-03-30T18:15:58.343Z,98583.97
2023-03-30T18:18:27.493Z,98581.41
2023-03-30T18:20:56.529Z,98581.91
2023-03-30T18:23:24.355Z,98585.13
2023-03-30T18:25:51.452Z,98596.22
2023-03-30T18:28:21.039Z,98590.19
2023-03-30T18:30:48.155Z,98591.53
2023-03-30T18:33:18.737Z,98600.94
2023-03-30T18:35:47.907Z,98605.28
2023-03-30T18:38:17.988Z,98597.56
2023-03-30T18:40:49.251Z,98605.81
2023-03-30T18:43:16.559Z,98607.16
2023-03-30T18:45:46.447Z,98612.88
2023-03-30T18:48:15.688Z,98609.69
2023-03-30T18:50:44.171Z,98621.47
2023-03-30T18:53:22.579Z,98616.91
2023-03-30T18:55:51.847Z,98605.00
2023-03-30T18:58:23.295Z,98618.28
2023-03-30T19:00:51.645Z,98605.50
2023-03-30T19:03:19.832Z,98609.72
2023-03-30T19:05:46.954Z,98611.38
2023-03-30T19:08:19.131Z,98620.94
2023-03-30T19:10:48.486Z,98606.69
2023-03-30T19:13:17.187Z,98611.53
2023-03-30T19:15:45.225Z,98604.66
2023-03-30T19:18:12.755Z,98595.56
2023-03-30T19:20:41.523Z,98610.53
2023-03-30T19:23:11.210Z,98615.75
2023-03-30T19:25:38.116Z,98607.69
2023-03-30T19:28:06.031Z,98615.75
2023-03-30T19:30:36.721Z,98608.50
2023-03-30T19:33:07.754Z,98608.69
2023-03-30T19:35:34.666Z,98615.09
2023-03-30T19:38:01.770Z,98607.69
2023-03-30T19:40:28.257Z,98611.03
2023-03-30T19:42:54.859Z,98603.31
2023-03-30T19:45:23.984Z,98610.03
2023-03-30T19:47:51.760Z,98611.72
2023-03-30T19:50:20.221Z,98609.53
2023-03-30T19:52:50.265Z,98604.97
2023-03-30T19:55:18.352Z,98608.69
2023-03-30T19:57:44.936Z,98601.31
2023-03-30T20:00:16.064Z,98600.31
2023-03-30T20:02:45.372Z,98600.31
2023-03-30T20:05:16.000Z,98598.44
2023-03-30T20:07:44.369Z,98592.06
2023-03-30T20:10:14.729Z,98587.72
2023-03-30T20:12:41.403Z,98582.50
2023-03-30T20:15:09.729Z,98577.47
2023-03-30T20:17:38.575Z,98576.09
2023-03-30T20:20:08.423Z,98580.47
2023-03-30T20:22:37.136Z,98590.03
2023-03-30T20:25:08.072Z,98576.78
2023-03-30T20:27:35.920Z,98575.63
2023-03-30T20:30:03.883Z,98573.41
2023-03-30T20:32:30.408Z,98566.38
2023-03-30T20:34:56.965Z,98571.72
2023-03-30T20:37:23.491Z,98569.03
2023-03-30T20:39:50.490Z,98572.25
2023-03-30T20:42:17.950Z,98574.09
2023-03-30T20:44:50.557Z,98575.78
2023-03-30T20:47:23.201Z,98573.09
2023-03-30T20:49:49.913Z,98570.56
2023-03-30T20:52:16.996Z,98569.38
2023-03-30T20:54:45.377Z,98560.50
2023-03-30T20:57:12.493Z,98560.34
2023-03-30T20:59:39.510Z,98562.00
2023-03-30T21:02:06.949Z,98563.00
2023-03-30T21:04:33.845Z,98556.63
2023-03-30T21:07:00.823Z,98554.94
2023-03-30T21:09:27.671Z,98540.53
2023-03-30T21:11:54.493Z,98546.72
2023-03-30T21:14:21.156Z,98549.25
2023-03-30T21:16:48.062Z,98544.03
2023-03-30T21:19:16.111Z,98536.00
2023-03-30T21:21:42.606Z,98535.13
2023-03-30T21:24:11.082Z,98521.69
2023-03-30T21:26:38.022Z,98525.41
2023-03-30T21:29:05.542Z,98534.13
2023-03-30T21:31:32.194Z,98526.22
2023-03-30T21:33:58.856Z,98528.25
2023-03-30T21:36:25.385Z,98520.22
2023-03-30T21:38:51.961Z,98513.66
2023-03-30T21:41:21.352Z,98504.25
2023-03-30T21:43:48.364Z,98497.22
2023-03-30T21:46:17.814Z,98496.56
2023-03-30T21:48:46.574Z,98495.19
2023-03-30T21:51:18.854Z,98494.53
2023-03-30T21:53:48.681Z,98484.28
2023-03-30T21:56:15.912Z,98478.09
2023-03-30T21:58:42.586Z,98481.75
2023-03-30T22:01:12.646Z,98481.44
2023-03-30T22:03:44.717Z,98478.25
2023-03-30T22:06:14.989Z,98471.38
2023-03-30T22:08:42.419Z,98472.72
2023-03-30T22:11:13.159Z,98476.22
2023-03-30T22:13:39.603Z,98481.94
2023-03-30T22:16:19.222Z,98478.56
2023-03-30T22:18:46.385Z,98482.78
2023-03-30T22:21:17.006Z,98471.03
2023-03-30T22:23:44.230Z,98462.97
2023-03-30T22:26:11.912Z,98464.34
2023-03-30T22:28:38.868Z,98461.47
2023-03-30T22:31:10.288Z,98459.44
2023-03-30T22:33:37.702Z,98455.94
2023-03-30T22:36:05.233Z,98448.34
2023-03-30T22:38:32.351Z,98453.38
2023-03-30T22:41:07.134Z,98453.88
2023-03-30T22:43:36.183Z,98457.53
2023-03-30T22:46:03.921Z,98443.09
2023-03-30T22:48:31.097Z,98450.84
2023-03-30T22:51:02.044Z,98449.84
2023-03-30T22:53:32.916Z,98439.25
2023-03-30T22:56:00.160Z,98437.06
2023-03-30T22:58:27.420Z,98434.91
2023-03-30T23:01:01.260Z,98431.03
2023-03-30T23:03:28.224Z,98431.09
2023-03-30T23:05:56.365Z,98422.38
2023-03-30T23:08:23.922Z,98435.09
2023-03-30T23:10:52.182Z,98415.97
2023-03-30T23:13:18.751Z,98416.16
2023-03-30T23:15:48.481Z,98407.59
2023-03-30T23:18:15.742Z,98402.75
2023-03-30T23:20:46.690Z,98411.66
2023-03-30T23:23:14.531Z,98403.09
2023-03-30T23:25:50.091Z,98404.25
2023-03-30T23:28:17.062Z,98387.34
2023-03-30T23:30:45.205Z,98391.31
2023-03-30T23:33:13.367Z,98389.66
2023-03-30T23:35:41.239Z,98391.81
2023-03-30T23:38:10.481Z,98392.38
2023-03-30T23:40:36.908Z,98385.78
2023-03-30T23:43:03.585Z,98388.16
2023-03-30T23:45:30.276Z,98393.31
2023-03-30T23:47:56.744Z,98382.41
2023-03-30T23:50:23.597Z,98380.41
2023-03-30T23:52:50.035Z,98375.91
2023-03-30T23:55:18.756Z,98380.06
2023-03-30T23:57:45.422Z,98382.56
